createdAt,value
2019-06-08T00:00:48.375Z,16.68
2019-06-08T00:03:16.856Z,16.65
2019-06-08T00:05:44.503Z,16.67
2019-06-08T00:08:12.969Z,16.71
2019-06-08T00:10:40.698Z,16.74
2019-06-08T00:13:08.481Z,16.63
2019-06-08T00:15:36.216Z,16.64
2019-06-08T00:18:04.053Z,16.60
2019-06-08T00:20:31.709Z,16.66
2019-06-08T00:22:59.321Z,16.64
2019-06-08T00:25:26.911Z,16.59
2019-06-08T00:27:54.447Z,16.57
2019-06-08T00:30:22.098Z,16.63
2019-06-08T00:32:49.608Z,16.64
2019-06-08T00:35:18.565Z,16.59
2019-06-08T00:37:46.223Z,16.55
2019-06-08T00:40:14.908Z,16.57
2019-06-08T00:42:42.459Z,16.49
2019-06-08T00:45:10.041Z,16.46
2019-06-08T00:47:47.641Z,16.39
2019-06-08T00:50:08.072Z,16.39
2019-06-08T00:52:35.782Z,16.41
2019-06-08T00:55:03.424Z,16.39
2019-06-08T00:57:31.036Z,16.35
2019-06-08T00:59:58.610Z,16.34
2019-06-08T01:02:26.785Z,16.29
2019-06-08T01:04:54.489Z,16.24
2019-06-08T01:07:22.142Z,16.24
2019-06-08T01:09:49.764Z,16.20
2019-06-08T01:12:18.617Z,16.13
2019-06-08T01:14:46.585Z,16.10
2019-06-08T01:17:14.190Z,16.07
2019-06-08T01:19:41.785Z,16.03
2019-06-08T01:22:09.391Z,15.99
2019-06-08T01:24:36.970Z,16.00
2019-06-08T01:27:04.776Z,15.95
2019-06-08T01:29:32.300Z,15.90
2019-06-08T01:31:59.901Z,15.90
2019-06-08T01:34:28.918Z,15.87
2019-06-08T01:36:56.634Z,15.86
2019-06-08T01:39:25.168Z,15.86
2019-06-08T01:41:52.983Z,15.84
2019-06-08T01:44:21.518Z,15.79
2019-06-08T01:46:49.140Z,15.75
2019-06-08T01:49:16.662Z,15.73
2019-06-08T01:51:44.280Z,15.72
2019-06-08T01:54:11.795Z,15.70
2019-06-08T01:56:39.424Z,15.71
2019-06-08T01:59:06.969Z,15.53
2019-06-08T02:01:34.733Z,15.68
2019-06-08T02:04:03.651Z,15.67
2019-06-08T02:06:32.347Z,15.65
2019-06-08T02:09:00.065Z,15.60
2019-06-08T02:11:28.818Z,15.59
2019-06-08T02:13:56.659Z,15.56
2019-06-08T02:16:25.621Z,15.53
2019-06-08T02:18:53.412Z,15.46
2019-06-08T02:21:21.047Z,15.42
2019-06-08T02:23:48.646Z,15.40
2019-06-08T02:26:16.193Z,15.33
2019-06-08T02:28:43.742Z,15.28
2019-06-08T02:31:11.441Z,15.25
2019-06-08T02:33:40.488Z,15.20
2019-06-08T02:36:08.224Z,15.19
2019-06-08T02:38:36.199Z,15.19
2019-06-08T02:41:03.788Z,15.13
2019-06-08T02:43:33.370Z,15.10
2019-06-08T02:46:01.218Z,15.07
2019-06-08T02:48:29.497Z,15.04
2019-06-08T02:50:57.692Z,14.97
2019-06-08T02:53:26.253Z,14.96
2019-06-08T02:55:54.017Z,14.94
2019-06-08T02:58:22.131Z,14.93
2019-06-08T03:00:50.583Z,14.88
2019-06-08T03:03:18.254Z,14.89
2019-06-08T03:05:48.379Z,14.89
2019-06-08T03:08:16.079Z,14.91
2019-06-08T03:10:43.653Z,14.87
2019-06-08T03:13:11.470Z,14.88
2019-06-08T03:15:40.910Z,14.94
2019-06-08T03:18:08.683Z,14.96
2019-06-08T03:20:37.877Z,15.03
2019-06-08T03:23:05.605Z,15.01
2019-06-08T03:25:42.018Z,15.04
2019-06-08T03:28:02.789Z,15.10
2019-06-08T03:30:34.199Z,15.15
2019-06-08T03:33:00.905Z,15.19
2019-06-08T03:35:28.484Z,15.23
2019-06-08T03:37:56.039Z,15.23
2019-06-08T03:40:23.654Z,15.30
2019-06-08T03:42:53.312Z,15.28
2019-06-08T03:45:21.710Z,15.36
2019-06-08T03:47:49.312Z,15.42
2019-06-08T03:50:17.253Z,15.37
2019-06-08T03:52:46.299Z,15.54
2019-06-08T03:55:14.190Z,15.58
2019-06-08T03:57:42.146Z,15.63
2019-06-08T04:00:13.370Z,15.65
2019-06-08T04:02:39.951Z,15.74
2019-06-08T04:05:09.135Z,15.83
2019-06-08T04:07:37.604Z,15.93
2019-06-08T04:10:05.642Z,16.00
2019-06-08T04:12:33.445Z,16.11
2019-06-08T04:15:01.096Z,16.22
2019-06-08T04:17:28.766Z,16.40
2019-06-08T04:20:10.243Z,16.47
2019-06-08T04:22:25.970Z,16.49
2019-06-08T04:24:53.523Z,16.62
2019-06-08T04:27:21.128Z,16.65
2019-06-08T04:29:50.170Z,16.73
2019-06-08T04:32:18.103Z,16.94
2019-06-08T04:34:47.383Z,17.17
2019-06-08T04:37:16.008Z,17.18
2019-06-08T04:39:44.506Z,17.26
2019-06-08T04:42:12.213Z,17.51
2019-06-08T04:44:40.490Z,17.65
2019-06-08T04:47:09.210Z,17.73
2019-06-08T04:49:38.393Z,17.77
2019-06-08T04:52:06.166Z,17.96
2019-06-08T04:54:33.750Z,18.07
2019-06-08T04:57:01.473Z,18.18
2019-06-08T04:59:29.060Z,18.21
2019-06-08T05:01:56.643Z,18.35
2019-06-08T05:04:24.419Z,18.46
2019-06-08T05:06:51.988Z,18.62
2019-06-08T05:09:19.686Z,18.86
2019-06-08T05:11:47.554Z,18.98
2019-06-08T05:14:15.338Z,19.25
2019-06-08T05:16:43.221Z,19.51
2019-06-08T05:19:10.967Z,19.77
2019-06-08T05:21:39.489Z,19.89
2019-06-08T05:24:07.245Z,20.06
2019-06-08T05:26:34.864Z,20.30
2019-06-08T05:29:02.464Z,20.47
2019-06-08T05:31:30.067Z,20.58
2019-06-08T05:33:57.693Z,20.77
2019-06-08T05:36:25.278Z,20.96
2019-06-08T05:38:52.967Z,21.06
2019-06-08T05:41:23.963Z,21.16
2019-06-08T05:43:50.490Z,21.26
2019-06-08T05:46:18.277Z,21.45
2019-06-08T05:48:46.298Z,21.55
2019-06-08T05:51:14.246Z,21.73
2019-06-08T05:53:43.817Z,21.86
2019-06-08T05:56:11.658Z,22.01
2019-06-08T05:58:39.893Z,22.10
2019-06-08T06:01:07.843Z,22.26
2019-06-08T06:03:36.913Z,22.39
2019-06-08T06:06:04.744Z,22.54
2019-06-08T06:08:32.744Z,22.71
2019-06-08T06:11:01.022Z,22.78
2019-06-08T06:13:29.252Z,22.81
2019-06-08T06:15:57.283Z,23.05
2019-06-08T06:18:25.378Z,23.05
2019-06-08T06:21:09.511Z,23.13
2019-06-08T06:23:23.480Z,23.23
2019-06-08T06:25:51.875Z,23.34
2019-06-08T06:28:19.869Z,23.44
2019-06-08T06:30:48.473Z,23.59
2019-06-08T06:33:17.565Z,23.69
2019-06-08T06:35:45.812Z,23.84
2019-06-08T06:38:13.800Z,23.97
2019-06-08T06:40:41.969Z,24.05
2019-06-08T06:43:11.017Z,24.19
2019-06-08T06:45:39.107Z,24.35
2019-06-08T06:48:07.321Z,24.52
2019-06-08T06:50:35.501Z,24.63
2019-06-08T06:53:03.894Z,24.68
2019-06-08T06:55:32.129Z,24.83
2019-06-08T06:58:00.045Z,24.95
2019-06-08T07:00:31.534Z,25.14
2019-06-08T07:03:00.058Z,25.26
2019-06-08T07:05:28.309Z,25.29
2019-06-08T07:07:56.450Z,25.37
2019-06-08T07:10:24.459Z,25.47
2019-06-08T07:12:52.839Z,25.68
2019-06-08T07:15:26.652Z,25.89
2019-06-08T07:17:55.055Z,26.02
2019-06-08T07:20:24.114Z,26.15
2019-06-08T07:22:52.270Z,26.19
2019-06-08T07:25:21.396Z,26.36
2019-06-08T07:27:50.514Z,26.30
2019-06-08T07:30:18.636Z,26.41
2019-06-08T07:32:48.008Z,26.57
2019-06-08T07:35:18.095Z,26.68
2019-06-08T07:37:48.439Z,26.72
2019-06-08T07:40:17.382Z,26.95
2019-06-08T07:42:45.472Z,27.09
2019-06-08T07:45:13.796Z,27.29
2019-06-08T07:47:41.748Z,27.46
2019-06-08T07:50:10.007Z,27.52
2019-06-08T07:52:38.181Z,27.64
2019-06-08T07:55:06.352Z,27.72
2019-06-08T07:57:34.445Z,27.64
2019-06-08T08:00:09.158Z,27.54
2019-06-08T08:02:32.091Z,27.66
2019-06-08T08:05:00.155Z,27.76
2019-06-08T08:07:28.142Z,28.02
2019-06-08T08:09:56.966Z,28.14
2019-06-08T08:12:25.092Z,28.12
2019-06-08T08:14:53.335Z,28.30
2019-06-08T08:17:21.236Z,28.61
2019-06-08T08:19:49.141Z,28.78
2019-06-08T08:22:23.136Z,28.90
2019-06-08T08:24:50.391Z,28.98
2019-06-08T08:27:17.940Z,29.03
2019-06-08T08:29:47.588Z,29.04
2019-06-08T08:32:18.609Z,29.22
2019-06-08T08:34:47.664Z,29.43
2019-06-08T08:37:17.600Z,29.52
2019-06-08T08:39:47.311Z,29.80
2019-06-08T08:42:15.180Z,29.88
2019-06-08T08:44:43.149Z,29.91
2019-06-08T08:47:11.243Z,30.27
2019-06-08T08:49:39.284Z,30.33
2019-06-08T08:52:08.787Z,30.48
2019-06-08T08:54:37.727Z,30.54
2019-06-08T08:57:08.375Z,30.96
2019-06-08T08:59:38.236Z,31.12
2019-06-08T09:02:08.381Z,31.41
2019-06-08T09:04:38.024Z,31.31
2019-06-08T09:07:10.280Z,31.31
2019-06-08T09:09:38.718Z,31.58
2019-06-08T09:12:08.355Z,31.66
2019-06-08T09:14:38.718Z,31.86
2019-06-08T09:17:08.606Z,32.07
2019-06-08T09:19:38.237Z,31.74
2019-06-08T09:22:08.336Z,31.17
2019-06-08T09:24:38.787Z,31.61
2019-06-08T09:27:08.071Z,31.81
2019-06-08T09:29:38.588Z,31.94
2019-06-08T09:32:07.991Z,32.01
2019-06-08T09:34:38.370Z,32.28
2019-06-08T09:37:07.853Z,32.19
2019-06-08T09:39:36.345Z,32.45
2019-06-08T09:42:05.440Z,32.66
2019-06-08T09:44:33.526Z,33.22
2019-06-08T09:47:07.838Z,33.20
2019-06-08T09:49:31.707Z,33.22
2019-06-08T09:52:01.927Z,33.25
2019-06-08T09:54:29.673Z,33.33
2019-06-08T09:57:00.942Z,33.70
2019-06-08T09:59:28.545Z,33.36
2019-06-08T10:02:00.977Z,33.01
2019-06-08T10:04:29.139Z,33.72
2019-06-08T10:07:00.224Z,34.04
2019-06-08T10:09:28.421Z,34.09
2019-06-08T10:11:59.093Z,34.68
2019-06-08T10:14:28.229Z,34.07
2019-06-08T10:16:59.140Z,34.02
2019-06-08T10:19:26.278Z,33.62
2019-06-08T10:21:54.836Z,33.87
2019-06-08T10:24:22.857Z,33.70
2019-06-08T10:26:50.841Z,33.37
2019-06-08T10:29:18.802Z,33.05
2019-06-08T10:31:48.339Z,32.51
2019-06-08T10:34:17.185Z,31.97
2019-06-08T10:36:44.821Z,31.67
2019-06-08T10:39:12.648Z,31.20
2019-06-08T10:41:40.825Z,30.76
2019-06-08T10:44:13.841Z,30.59
2019-06-08T10:46:40.606Z,30.15
2019-06-08T10:49:13.608Z,30.06
2019-06-08T10:51:40.750Z,30.45
2019-06-08T10:54:09.474Z,30.60
2019-06-08T10:56:38.588Z,30.84
2019-06-08T10:59:09.976Z,30.56
2019-06-08T11:01:38.595Z,30.47
2019-06-08T11:04:07.118Z,30.63
2019-06-08T11:06:39.906Z,30.74
2019-06-08T11:09:11.961Z,30.67
2019-06-08T11:11:38.141Z,30.75
2019-06-08T11:14:10.706Z,30.78
2019-06-08T11:16:38.524Z,30.74
2019-06-08T11:19:11.441Z,30.63
2019-06-08T11:21:38.574Z,30.70
2019-06-08T11:24:19.549Z,30.68
2019-06-08T11:26:40.028Z,30.93
2019-06-08T11:29:09.596Z,30.92
2019-06-08T11:31:39.049Z,30.94
2019-06-08T11:34:08.439Z,31.22
2019-06-08T11:36:39.077Z,31.40
2019-06-08T11:39:09.118Z,30.98
2019-06-08T11:41:36.745Z,30.83
2019-06-08T11:44:05.495Z,30.55
2019-06-08T11:46:34.634Z,30.04
2019-06-08T11:49:05.056Z,29.86
2019-06-08T11:51:32.680Z,29.40
2019-06-08T11:54:01.130Z,29.47
2019-06-08T11:56:31.021Z,29.36
2019-06-08T11:59:00.995Z,28.86
2019-06-08T12:01:30.049Z,28.81
2019-06-08T12:03:58.080Z,29.52
2019-06-08T12:06:26.144Z,29.75
2019-06-08T12:08:53.937Z,30.05
2019-06-08T12:11:23.205Z,30.61
2019-06-08T12:13:51.278Z,30.68
2019-06-08T12:16:22.173Z,30.94
2019-06-08T12:18:49.478Z,30.81
2019-06-08T12:21:18.588Z,30.77
2019-06-08T12:23:46.658Z,31.19
2019-06-08T12:26:14.852Z,31.86
2019-06-08T12:28:43.032Z,31.54
2019-06-08T12:31:15.664Z,31.45
2019-06-08T12:33:41.874Z,31.45
2019-06-08T12:36:13.658Z,31.21
2019-06-08T12:38:39.712Z,30.93
2019-06-08T12:41:09.588Z,30.39
2019-06-08T12:43:38.562Z,30.02
2019-06-08T12:46:10.618Z,29.59
2019-06-08T12:48:38.484Z,29.32
2019-06-08T12:51:09.923Z,29.07
2019-06-08T12:53:38.160Z,28.91
2019-06-08T12:56:09.071Z,28.81
2019-06-08T12:58:38.687Z,28.65
2019-06-08T13:01:08.221Z,28.50
2019-06-08T13:03:37.760Z,28.26
2019-06-08T13:06:07.898Z,28.49
2019-06-08T13:08:35.595Z,28.73
2019-06-08T13:11:03.177Z,28.35
2019-06-08T13:13:30.792Z,28.08
2019-06-08T13:15:58.783Z,28.01
2019-06-08T13:18:26.851Z,28.02
2019-06-08T13:20:54.849Z,27.94
2019-06-08T13:23:23.001Z,28.02
2019-06-08T13:25:51.024Z,28.37
2019-06-08T13:28:24.706Z,28.85
2019-06-08T13:30:49.089Z,29.31
2019-06-08T13:33:18.183Z,29.70
2019-06-08T13:35:48.010Z,29.89
2019-06-08T13:38:19.645Z,29.82
2019-06-08T13:40:48.443Z,29.75
2019-06-08T13:43:19.799Z,29.78
2019-06-08T13:45:48.567Z,29.38
2019-06-08T13:48:18.995Z,29.21
2019-06-08T13:50:49.926Z,29.07
2019-06-08T13:53:20.692Z,28.88
2019-06-08T13:55:53.309Z,28.53
2019-06-08T13:58:19.316Z,28.22
2019-06-08T14:00:47.782Z,28.09
2019-06-08T14:03:18.199Z,28.02
2019-06-08T14:05:47.811Z,27.85
2019-06-08T14:08:17.186Z,27.91
2019-06-08T14:10:45.560Z,27.92
2019-06-08T14:13:14.982Z,27.98
2019-06-08T14:15:43.126Z,27.75
2019-06-08T14:18:10.963Z,27.59
2019-06-08T14:20:38.990Z,27.55
2019-06-08T14:23:09.225Z,27.61
2019-06-08T14:25:49.789Z,27.44
2019-06-08T14:28:06.724Z,27.40
2019-06-08T14:30:37.647Z,27.19
2019-06-08T14:33:08.012Z,26.98
2019-06-08T14:35:35.341Z,26.97
2019-06-08T14:38:03.332Z,26.97
2019-06-08T14:40:33.082Z,26.87
2019-06-08T14:43:01.488Z,27.01
2019-06-08T14:45:31.059Z,26.90
2019-06-08T14:47:59.344Z,26.86
2019-06-08T14:50:30.730Z,26.96
2019-06-08T14:52:58.836Z,27.20
2019-06-08T14:55:33.244Z,27.42
2019-06-08T14:57:57.986Z,27.57
2019-06-08T15:00:27.523Z,27.52
2019-06-08T15:02:55.691Z,27.61
2019-06-08T15:05:23.510Z,27.55
2019-06-08T15:07:51.497Z,27.36
2019-06-08T15:10:21.467Z,27.33
2019-06-08T15:12:48.960Z,27.29
2019-06-08T15:15:18.458Z,27.34
2019-06-08T15:17:47.720Z,27.41
2019-06-08T15:20:17.675Z,27.37
2019-06-08T15:22:45.614Z,27.28
2019-06-08T15:25:13.235Z,27.25
2019-06-08T15:27:40.857Z,27.36
2019-06-08T15:30:10.092Z,27.45
2019-06-08T15:32:38.656Z,27.28
2019-06-08T15:35:08.141Z,27.02
2019-06-08T15:37:38.016Z,26.87
2019-06-08T15:40:07.647Z,26.75
2019-06-08T15:42:35.857Z,26.70
2019-06-08T15:45:04.864Z,26.72
2019-06-08T15:47:32.611Z,26.61
2019-06-08T15:50:00.917Z,26.46
2019-06-08T15:52:30.876Z,26.46
2019-06-08T15:55:01.386Z,26.51
2019-06-08T15:57:31.100Z,26.42
2019-06-08T15:59:58.674Z,26.22
2019-06-08T16:02:27.325Z,26.07
2019-06-08T16:04:55.601Z,25.89
2019-06-08T16:07:29.408Z,26.00
2019-06-08T16:09:53.416Z,26.04
2019-06-08T16:12:21.421Z,26.01
2019-06-08T16:14:49.285Z,25.87
2019-06-08T16:17:17.325Z,25.81
2019-06-08T16:19:45.218Z,25.65
2019-06-08T16:22:13.041Z,25.54
2019-06-08T16:24:41.153Z,25.37
2019-06-08T16:27:09.023Z,25.21
2019-06-08T16:29:36.786Z,25.24
2019-06-08T16:32:04.741Z,25.06
2019-06-08T16:34:33.611Z,25.00
2019-06-08T16:37:02.884Z,24.99
2019-06-08T16:39:30.944Z,24.96
2019-06-08T16:41:58.821Z,24.85
2019-06-08T16:44:28.023Z,24.82
2019-06-08T16:46:55.853Z,24.83
2019-06-08T16:49:23.943Z,24.83
2019-06-08T16:51:51.832Z,24.81
2019-06-08T16:54:20.904Z,24.72
2019-06-08T16:56:48.776Z,24.76
2019-06-08T16:59:19.576Z,24.70
2019-06-08T17:01:47.772Z,24.55
2019-06-08T17:04:15.618Z,24.49
2019-06-08T17:06:43.520Z,24.51
2019-06-08T17:09:11.397Z,24.36
2019-06-08T17:11:39.442Z,24.40
2019-06-08T17:14:08.257Z,24.29
2019-06-08T17:16:36.414Z,24.32
2019-06-08T17:19:04.567Z,24.24
2019-06-08T17:21:32.305Z,24.14
2019-06-08T17:23:59.853Z,24.14
2019-06-08T17:26:27.892Z,24.11
2019-06-08T17:28:55.951Z,23.97
2019-06-08T17:31:23.883Z,23.89
2019-06-08T17:33:51.897Z,23.86
2019-06-08T17:36:19.812Z,23.84
2019-06-08T17:38:47.848Z,23.87
2019-06-08T17:41:15.938Z,23.75
2019-06-08T17:43:44.098Z,23.73
2019-06-08T17:46:12.047Z,23.70
2019-06-08T17:48:40.706Z,23.63
2019-06-08T17:51:08.965Z,23.63
2019-06-08T17:53:37.066Z,23.65
2019-06-08T17:56:04.838Z,23.59
2019-06-08T17:58:33.072Z,23.57
2019-06-08T18:01:00.852Z,23.52
2019-06-08T18:03:29.047Z,23.47
2019-06-08T18:05:57.989Z,23.50
2019-06-08T18:08:28.171Z,23.41
2019-06-08T18:10:57.608Z,23.28
2019-06-08T18:13:27.259Z,23.38
2019-06-08T18:15:57.464Z,23.28
2019-06-08T18:18:25.097Z,23.31
2019-06-08T18:20:52.956Z,23.25
2019-06-08T18:23:21.009Z,23.15
2019-06-08T18:25:49.059Z,23.13
2019-06-08T18:28:17.953Z,23.09
2019-06-08T18:30:49.011Z,23.02
2019-06-08T18:33:17.924Z,22.99
2019-06-08T18:35:46.896Z,22.91
2019-06-08T18:38:14.688Z,22.93
2019-06-08T18:40:43.446Z,22.95
2019-06-08T18:43:11.249Z,22.95
2019-06-08T18:45:41.211Z,22.94
2019-06-08T18:48:08.332Z,22.87
2019-06-08T18:50:38.060Z,22.86
2019-06-08T18:53:07.104Z,22.81
2019-06-08T18:55:36.256Z,22.75
2019-06-08T18:58:16.343Z,22.71
2019-06-08T19:00:40.008Z,22.63
2019-06-08T19:03:07.165Z,22.62
2019-06-08T19:05:38.452Z,22.62
2019-06-08T19:08:07.009Z,22.62
2019-06-08T19:10:37.887Z,22.56
2019-06-08T19:13:05.878Z,22.60
2019-06-08T19:15:38.787Z,22.50
2019-06-08T19:18:05.331Z,22.43
2019-06-08T19:20:35.054Z,22.38
2019-06-08T19:23:03.346Z,22.34
2019-06-08T19:25:31.293Z,22.32
2019-06-08T19:27:59.375Z,22.32
2019-06-08T19:30:28.194Z,22.16
2019-06-08T19:32:58.003Z,22.02
2019-06-08T19:35:27.395Z,21.98
2019-06-08T19:37:58.143Z,21.82
2019-06-08T19:40:27.156Z,21.63
2019-06-08T19:42:58.015Z,21.67
2019-06-08T19:45:27.547Z,21.59
2019-06-08T19:47:57.578Z,21.53
2019-06-08T19:50:24.916Z,21.48
2019-06-08T19:52:53.537Z,21.41
2019-06-08T19:55:21.947Z,21.34
2019-06-08T19:57:51.786Z,21.24
2019-06-08T20:00:19.510Z,21.16
2019-06-08T20:02:51.915Z,21.06
2019-06-08T20:05:17.523Z,20.97
2019-06-08T20:07:45.106Z,20.91
2019-06-08T20:10:12.699Z,20.76
2019-06-08T20:12:41.214Z,20.67
2019-06-08T20:15:09.589Z,20.44
2019-06-08T20:17:37.371Z,20.45
2019-06-08T20:20:07.739Z,20.37
2019-06-08T20:22:37.310Z,20.28
2019-06-08T20:25:10.190Z,20.24
2019-06-08T20:27:37.241Z,20.17
2019-06-08T20:30:09.624Z,20.09
2019-06-08T20:32:35.640Z,19.95
2019-06-08T20:35:05.066Z,19.84
2019-06-08T20:37:33.330Z,19.75
2019-06-08T20:40:10.197Z,19.75
2019-06-08T20:42:31.249Z,19.63
2019-06-08T20:44:59.268Z,19.54
2019-06-08T20:47:27.694Z,19.51
2019-06-08T20:49:58.107Z,19.34
2019-06-08T20:52:28.016Z,19.32
2019-06-08T20:54:55.493Z,19.23
2019-06-08T20:57:23.380Z,19.14
2019-06-08T20:59:53.437Z,19.06
2019-06-08T21:02:21.297Z,18.87
2019-06-08T21:04:52.799Z,18.92
2019-06-08T21:07:19.172Z,18.86
2019-06-08T21:09:50.738Z,18.83
2019-06-08T21:12:17.766Z,18.80
2019-06-08T21:14:49.310Z,18.74
2019-06-08T21:17:17.904Z,18.69
2019-06-08T21:19:46.723Z,18.61
2019-06-08T21:22:14.707Z,18.55
2019-06-08T21:24:42.711Z,18.48
2019-06-08T21:27:10.542Z,18.43
2019-06-08T21:29:47.457Z,18.38
2019-06-08T21:32:09.711Z,18.31
2019-06-08T21:34:38.100Z,18.22
2019-06-08T21:37:06.127Z,18.15
2019-06-08T21:39:36.670Z,18.11
2019-06-08T21:42:04.099Z,18.03
2019-06-08T21:44:32.077Z,17.97
2019-06-08T21:47:01.582Z,17.92
2019-06-08T21:49:29.942Z,17.88
2019-06-08T21:52:00.823Z,17.82
2019-06-08T21:54:27.673Z,17.78
2019-06-08T21:56:58.868Z,17.76
2019-06-08T21:59:25.511Z,17.69
2019-06-08T22:01:54.724Z,17.65
2019-06-08T22:04:23.090Z,17.60
2019-06-08T22:06:51.910Z,17.55
2019-06-08T22:09:19.972Z,17.54
2019-06-08T22:11:47.810Z,17.50
2019-06-08T22:14:15.880Z,17.42
2019-06-08T22:16:43.962Z,17.38
2019-06-08T22:19:11.725Z,17.33
2019-06-08T22:21:39.467Z,17.30
2019-06-08T22:24:07.901Z,17.28
2019-06-08T22:26:35.933Z,17.23
2019-06-08T22:29:03.798Z,17.17
2019-06-08T22:31:32.080Z,17.14
2019-06-08T22:34:02.060Z,17.09
2019-06-08T22:36:29.793Z,17.12
2019-06-08T22:38:59.308Z,17.04
2019-06-08T22:41:28.060Z,17.02
2019-06-08T22:43:59.036Z,17.02
2019-06-08T22:46:25.338Z,17.01
2019-06-08T22:48:53.568Z,16.98
2019-06-08T22:51:22.393Z,16.97
2019-06-08T22:53:50.194Z,16.99
2019-06-08T22:56:18.453Z,16.95
2019-06-08T22:58:48.015Z,16.95
2019-06-08T23:01:18.197Z,16.90
2019-06-08T23:03:47.584Z,16.94
2019-06-08T23:06:17.715Z,16.93
2019-06-08T23:08:47.880Z,16.96
2019-06-08T23:11:17.834Z,16.95
2019-06-08T23:13:47.194Z,17.00
2019-06-08T23:16:15.003Z,16.98
2019-06-08T23:18:42.876Z,17.06
2019-06-08T23:21:10.927Z,17.06
2019-06-08T23:23:38.789Z,17.07
2019-06-08T23:26:10.177Z,17.06
2019-06-08T23:28:37.770Z,17.05
2019-06-08T23:31:19.425Z,17.07
2019-06-08T23:33:38.534Z,17.07
2019-06-08T23:36:39.465Z,17.06
2019-06-08T23:38:37.276Z,17.04
2019-06-08T23:41:05.616Z,17.02
2019-06-08T23:43:33.627Z,17.02
2019-06-08T23:46:02.366Z,17.01
2019-06-08T23:48:30.541Z,17.00
2019-06-08T23:50:59.082Z,17.02
2019-06-08T23:53:27.617Z,17.10
2019-06-08T23:55:55.274Z,17.17
2019-06-08T23:58:22.870Z,17.19
